Time;durP1;ratioP1;P1;durP2;ratioP2;P2;SDS_P1;SDS_P2;PMS_P1;PMS_P2;Temp;Humidity;BMP_temperature;BMP_pressure;BME280_temperature;BME280_humidity;BME280_pressure;Samples;Min_cycle;Max_cycle;Signal;HPM_P1;HPM_P2
2021/10/09 00:02:00;;;;;;;;;5.50;5.50;;;;;21.74;45.56;102191.03;4999552;28;51091;-40
2021/10/09 00:04:26;;;;;;;;;6.75;6.50;;;;;21.73;45.93;102192.94;4998443;28;53852;-41
2021/10/09 00:06:51;;;;;;;;;10.25;7.50;;;;;21.74;45.78;102191.03;5004855;28;50989;-40
2021/10/09 00:09:17;;;;;;;;;9.75;7.00;;;;;21.73;45.45;102197.63;5002551;28;51081;-40
2021/10/09 00:11:42;;;;;;;;;5.50;5.25;;;;;21.72;45.95;102182.97;5010245;28;51212;-40
2021/10/09 00:14:10;;;;;;;;;7.00;6.75;;;;;21.71;45.69;102186.78;4998764;28;51573;-40
2021/10/09 00:16:37;;;;;;;;;11.25;8.50;;;;;21.71;45.40;102189.53;5008589;28;51068;-40
2021/10/09 00:19:04;;;;;;;;;8.75;6.75;;;;;21.70;46.05;102185.09;4997595;28;51065;-40
2021/10/09 00:21:29;;;;;;;;;6.00;6.00;;;;;21.70;45.53;102187.84;5008121;28;52220;-40
2021/10/09 00:23:54;;;;;;;;;5.50;5.50;;;;;21.70;45.51;102187.00;5008624;28;50905;-40
2021/10/09 00:26:20;;;;;;;;;7.75;7.50;;;;;21.69;45.56;102188.03;5000932;28;51061;-40
2021/10/09 00:28:46;;;;;;;;;9.00;6.00;;;;;21.68;45.59;102181.69;5006010;28;51415;-41
2021/10/09 00:31:11;;;;;;;;;6.50;6.00;;;;;21.67;46.23;102188.22;5013184;28;51328;-40
2021/10/09 00:33:37;;;;;;;;;7.75;6.75;;;;;21.67;46.03;102190.97;4998383;28;52176;-39
2021/10/09 00:36:02;;;;;;;;;7.75;7.00;;;;;21.67;45.81;102187.34;4997287;28;51010;-40
2021/10/09 00:38:28;;;;;;;;;7.00;7.00;;;;;21.67;45.87;102182.69;4996513;28;51117;-40
2021/10/09 00:40:53;;;;;;;;;9.25;7.75;;;;;21.67;45.55;102179.09;5014536;28;50952;-40
2021/10/09 00:43:18;;;;;;;;;7.00;6.75;;;;;21.67;46.25;102187.34;4997565;28;51068;-41
2021/10/09 00:45:56;;;;;;;;;7.50;6.50;;;;;21.66;46.00;102181.00;5015496;28;51030;-40
2021/10/09 00:48:23;;;;;;;;;8.00;8.00;;;;;21.65;46.19;102182.06;4998092;28;51076;-41
2021/10/09 00:50:48;;;;;;;;;10.00;8.75;;;;;21.65;45.96;102183.94;4999847;28;51089;-40
2021/10/09 00:53:15;;;;;;;;;8.50;8.25;;;;;21.65;45.59;102181.19;5001746;28;51868;-40
2021/10/09 00:55:41;;;;;;;;;6.25;6.25;;;;;21.64;46.12;102185.00;5016451;28;51116;-40
2021/10/09 00:58:08;;;;;;;;;8.50;8.25;;;;;21.64;46.10;102185.84;5016682;28;51100;-45
2021/10/09 01:00:36;;;;;;;;;7.50;6.75;;;;;21.63;45.82;102177.78;5009927;28;50950;-40
2021/10/09 01:03:04;;;;;;;;;8.75;8.75;;;;;21.62;45.56;102176.94;5008778;28;51124;-41
2021/10/09 01:05:31;;;;;;;;;7.75;6.50;;;;;21.63;46.22;102175.03;5003290;28;51010;-41
2021/10/09 01:07:57;;;;;;;;;8.50;7.25;;;;;21.63;45.70;102178.66;5007557;28;51299;-40
2021/10/09 01:10:23;;;;;;;;;7.25;6.75;;;;;21.64;45.68;102176.75;5000659;28;51117;-40
2021/10/09 01:12:48;;;;;;;;;7.25;7.25;;;;;21.63;46.32;102172.28;5011066;28;51906;-39
2021/10/09 01:15:15;;;;;;;;;10.75;8.00;;;;;21.62;45.83;102179.69;5018986;28;50955;-40
2021/10/09 01:17:41;;;;;;;;;8.25;6.25;;;;;21.63;46.12;102175.88;5009544;28;51144;-40
2021/10/09 01:20:10;;;;;;;;;6.00;6.00;;;;;21.64;46.22;102172.06;5012297;28;51005;-40
2021/10/09 01:22:36;;;;;;;;;8.25;7.00;;;;;21.63;46.14;102178.66;5017263;28;52273;-40
2021/10/09 01:25:01;;;;;;;;;7.00;7.00;;;;;21.63;46.13;102180.56;5004890;28;51002;-40
2021/10/09 01:27:27;;;;;;;;;6.50;6.50;;;;;21.61;46.14;102176.09;5001265;28;51109;-40
2021/10/09 01:29:52;;;;;;;;;11.50;8.50;;;;;21.62;45.86;102176.94;5008567;28;51095;-40
2021/10/09 01:32:17;;;;;;;;;7.25;7.25;;;;;21.61;46.15;102175.25;5006468;28;51088;-40
2021/10/09 01:34:43;;;;;;;;;6.75;6.75;;;;;21.60;45.86;102179.91;5006322;28;51052;-41
2021/10/09 01:37:08;;;;;;;;;8.75;7.25;;;;;21.60;45.93;102179.91;5017232;28;51120;-41
2021/10/09 01:39:33;;;;;;;;;7.25;7.25;;;;;21.60;46.32;102174.38;5018468;28;51067;-41
2021/10/09 01:41:59;;;;;;;;;9.00;8.00;;;;;21.61;45.92;102175.25;5018396;28;51741;-40
2021/10/09 01:44:24;;;;;;;;;8.25;7.00;;;;;21.60;45.80;102173.53;5014594;28;51268;-41
2021/10/09 01:46:49;;;;;;;;;9.25;6.50;;;;;21.59;46.10;102174.59;5001758;28;51114;-40
2021/10/09 01:49:15;;;;;;;;;6.00;6.00;;;;;21.59;46.17;102171.84;5009751;28;51906;-40
2021/10/09 01:51:40;;;;;;;;;8.00;6.50;;;;;21.58;46.20;102172.88;5000029;28;51673;-41
2021/10/09 01:54:06;;;;;;;;;8.25;7.00;;;;;21.58;46.18;102170.97;5011712;28;50985;-40
2021/10/09 01:56:31;;;;;;;;;7.50;7.25;;;;;21.58;45.82;102170.13;5016387;28;50994;-40
2021/10/09 01:58:57;;;;;;;;;9.25;9.25;;;;;21.58;46.27;102170.97;4998281;28;51045;-40
2021/10/09 02:01:22;;;;;;;;;7.50;7.25;;;;;21.58;45.86;102170.13;4999045;28;51805;-40
2021/10/09 02:03:48;;;;;;;;;8.00;7.75;;;;;21.58;45.87;102170.13;4998630;28;50894;-40
2021/10/09 02:06:15;;;;;;;;;8.00;7.00;;;;;21.57;45.88;102171.16;5005306;28;50929;-40
2021/10/09 02:08:41;;;;;;;;;8.75;6.25;;;;;21.56;46.28;102174.97;5017935;28;50974;-40
2021/10/09 02:11:09;;;;;;;;;9.75;7.75;;;;;21.57;46.24;102166.50;5014884;28;52442;-40
2021/10/09 02:13:51;;;;;;;;;5.75;5.75;;;;;21.57;46.03;102173.91;5017816;28;51310;-40
2021/10/09 02:26:54;;;;;;;;;6.00;5.25;;;;;21.56;45.78;102155.66;4988143;28;51021;-40
2021/10/09 02:29:20;;;;;;;;;7.25;7.00;;;;;21.55;45.84;102162.22;5003764;28;51128;-40
2021/10/09 02:31:46;;;;;;;;;7.25;6.25;;;;;21.55;46.33;102160.31;5016586;28;50918;-40
2021/10/09 02:34:11;;;;;;;;;9.00;8.25;;;;;21.54;46.32;102168.78;4998613;28;50973;-40
2021/10/09 02:36:37;;;;;;;;;8.00;7.25;;;;;21.54;46.39;102163.28;5013908;28;51155;-39
2021/10/09 02:39:03;;;;;;;;;8.00;7.00;;;;;21.53;46.13;102170.69;5014580;28;51222;-40
2021/10/09 02:41:29;;;;;;;;;7.00;6.75;;;;;21.52;45.98;102163.47;5010536;28;52040;-40
2021/10/09 02:43:54;;;;;;;;;7.25;7.25;;;;;21.54;46.15;102163.28;5011884;28;51016;-48
2021/10/09 02:46:19;;;;;;;;;6.75;6.75;;;;;21.53;46.29;102165.19;4982931;28;51120;-40
2021/10/09 02:48:45;;;;;;;;;8.25;6.00;;;;;21.53;46.32;102158.81;5009382;28;51386;-40
2021/10/09 02:51:10;;;;;;;;;7.75;7.75;;;;;21.53;46.20;102167.09;5006357;28;51713;-40
2021/10/09 02:53:36;;;;;;;;;7.25;6.00;;;;;21.52;46.39;102162.63;5005554;28;50955;-40
2021/10/09 02:56:01;;;;;;;;;7.50;5.75;;;;;21.52;46.33;102159.88;5014871;28;51240;-40
2021/10/09 02:58:26;;;;;;;;;8.75;6.50;;;;;21.51;46.25;102160.94;5007381;28;51131;-40
2021/10/09 03:00:52;;;;;;;;;4.25;4.25;;;;;21.50;45.95;102162.84;5005500;28;51280;-40
2021/10/09 03:03:17;;;;;;;;;10.00;7.00;;;;;21.50;45.88;102157.31;5012547;28;50931;-40
2021/10/09 03:05:43;;;;;;;;;6.00;6.00;;;;;21.50;46.27;102153.72;5011525;28;51215;-40
2021/10/09 03:08:11;;;;;;;;;7.00;6.25;;;;;21.50;45.99;102156.47;5012084;28;51075;-40
2021/10/09 03:10:36;;;;;;;;;8.00;7.00;;;;;21.49;46.23;102160.28;4996901;28;50986;-40
2021/10/09 03:13:02;;;;;;;;;5.50;5.50;;;;;21.48;46.52;102159.44;5014662;28;50998;-40
2021/10/09 03:15:27;;;;;;;;;6.25;6.25;;;;;21.49;46.26;102160.28;5010587;28;51037;-40
2021/10/09 03:17:52;;;;;;;;;9.50;6.50;;;;;21.49;45.90;102157.53;5016980;28;51064;-40
2021/10/09 03:20:18;;;;;;;;;6.75;5.75;;;;;21.48;46.46;102158.56;5008638;28;50986;-40
2021/10/09 03:22:45;;;;;;;;;9.50;8.00;;;;;21.48;46.13;102167.69;5014963;28;51013;-40
2021/10/09 03:25:10;;;;;;;;;6.00;5.00;;;;;21.48;46.07;102158.56;5016086;28;51061;-40
2021/10/09 03:27:36;;;;;;;;;6.75;6.00;;;;;21.48;46.43;102159.44;4986945;28;51205;-40
2021/10/09 03:30:04;;;;;;;;;8.00;6.75;;;;;21.48;45.88;102158.56;5006809;28;51957;-41
2021/10/09 03:32:29;;;;;;;;;7.00;6.25;;;;;21.48;45.95;102159.44;5008952;28;51427;-40
2021/10/09 03:34:55;;;;;;;;;8.75;6.00;;;;;21.48;46.17;102153.06;5000864;28;51441;-40
2021/10/09 03:37:20;;;;;;;;;7.25;7.00;;;;;21.48;46.35;102164.09;5016075;28;51105;-40
2021/10/09 03:39:48;;;;;;;;;6.50;6.50;;;;;21.47;46.30;102159.63;4985518;28;51896;-40
2021/10/09 03:42:30;;;;;;;;;8.00;7.00;;;;;21.47;46.04;102162.38;5012558;28;51111;-40
2021/10/09 03:50:18;;;;;;;;;6.25;6.00;;;;;21.48;45.93;102169.59;5004293;28;51610;-40
2021/10/09 03:52:44;;;;;;;;;12.75;7.75;;;;;21.47;46.44;102156.88;5008847;28;51116;-39
2021/10/09 03:55:15;;;;;;;;;5.00;4.50;;;;;21.46;45.89;102167.00;5014830;28;51009;-39
2021/10/09 03:57:41;;;;;;;;;8.00;7.00;;;;;21.45;46.19;102157.03;5016737;28;51214;-39
2021/10/09 04:00:11;;;;;;;;;7.00;6.00;;;;;21.46;46.26;102157.91;5012808;28;51935;-40
2021/10/09 04:02:37;;;;;;;;;6.00;5.00;;;;;21.46;46.37;102157.91;5015665;28;51091;-39
2021/10/09 04:05:04;;;;;;;;;6.25;6.25;;;;;21.45;46.02;102158.94;5013157;28;51125;-40
2021/10/09 04:07:29;;;;;;;;;5.75;4.50;;;;;21.45;46.38;102156.19;5001360;28;51274;-40
2021/10/09 04:09:55;;;;;;;;;9.25;6.75;;;;;21.44;46.17;102158.09;4996889;28;51800;-40
2021/10/09 04:12:20;;;;;;;;;6.25;5.75;;;;;21.44;46.10;102151.72;5000747;28;50952;-40
2021/10/09 04:14:46;;;;;;;;;8.25;6.25;;;;;21.43;45.97;102155.53;4998560;28;51038;-39
2021/10/09 04:17:11;;;;;;;;;5.25;5.25;;;;;21.43;46.53;102155.53;5008128;28;51139;-40
2021/10/09 04:19:37;;;;;;;;;5.00;4.50;;;;;21.44;46.45;102160.00;5012651;28;51233;-39
2021/10/09 04:22:04;;;;;;;;;5.25;5.25;;;;;21.43;46.21;102158.31;5006251;28;50890;-40
2021/10/09 04:24:29;;;;;;;;;6.25;5.25;;;;;21.42;45.84;102149.19;5003333;28;51080;-39
2021/10/09 04:26:55;;;;;;;;;8.50;6.00;;;;;21.43;46.16;102150.88;5011003;28;51047;-40
2021/10/09 04:29:21;;;;;;;;;8.50;7.75;;;;;21.42;46.14;102140.91;5007926;28;51152;-39
2021/10/09 04:31:46;;;;;;;;;7.00;6.00;;;;;21.42;46.04;102154.69;5003559;28;51119;-39
2021/10/09 04:34:12;;;;;;;;;8.75;6.75;;;;;21.42;46.01;102148.31;4994072;28;51386;-39
2021/10/09 04:36:37;;;;;;;;;7.25;5.75;;;;;21.42;46.37;102148.31;5018766;28;50932;-39
2021/10/09 04:39:03;;;;;;;;;6.00;6.00;;;;;21.41;46.02;102153.00;5017306;28;51103;-39
2021/10/09 04:41:28;;;;;;;;;5.75;5.75;;;;;21.41;46.47;102152.13;5005268;28;51148;-39
2021/10/09 04:43:54;;;;;;;;;8.50;5.75;;;;;21.40;45.91;102145.78;5020062;28;50973;-39
2021/10/09 04:46:19;;;;;;;;;6.25;5.50;;;;;21.42;46.05;102149.19;5019222;28;51084;-39
2021/10/09 04:48:44;;;;;;;;;5.00;5.00;;;;;21.40;46.15;102145.78;5011696;28;51185;-39
2021/10/09 04:51:10;;;;;;;;;8.00;8.00;;;;;21.41;46.05;102143.88;5004185;28;51062;-40
2021/10/09 04:53:35;;;;;;;;;8.75;6.00;;;;;21.39;46.40;102138.56;5007371;28;51006;-39
2021/10/09 04:56:00;;;;;;;;;7.00;6.50;;;;;21.42;46.07;102145.56;5009052;28;50859;-40
2021/10/09 04:58:26;;;;;;;;;7.00;7.00;;;;;21.41;46.05;102149.38;5002217;28;51027;-39
2021/10/09 05:00:51;;;;;;;;;7.00;6.00;;;;;21.40;46.38;102147.69;5011504;28;51012;-39
2021/10/09 05:03:17;;;;;;;;;7.00;6.00;;;;;21.39;46.15;102140.47;5016205;28;51482;-39
2021/10/09 05:05:44;;;;;;;;;7.00;7.00;;;;;21.41;46.52;102141.97;5015519;28;50909;-39
2021/10/09 05:08:09;;;;;;;;;8.75;6.00;;;;;21.39;46.07;102140.47;5006837;28;51737;-39
2021/10/09 05:10:35;;;;;;;;;7.25;5.00;;;;;21.39;46.41;102137.69;5014996;28;51140;-39
2021/10/09 05:13:01;;;;;;;;;5.00;5.00;;;;;21.39;46.41;102137.69;5019236;28;51052;-39
2021/10/09 05:15:26;;;;;;;;;6.50;6.50;;;;;21.40;46.13;102136.66;5013131;28;51338;-39
2021/10/09 05:17:52;;;;;;;;;7.00;6.00;;;;;21.39;46.56;102138.56;5004006;28;51621;-39
2021/10/09 05:20:18;;;;;;;;;6.75;6.50;;;;;21.39;46.08;102143.22;5018215;28;51080;-39
2021/10/09 05:22:44;;;;;;;;;7.50;6.50;;;;;21.39;46.17;102144.06;5010172;28;51091;-39
2021/10/09 05:25:09;;;;;;;;;6.25;6.25;;;;;21.38;46.56;102147.88;5006708;28;51971;-39
2021/10/09 05:27:36;;;;;;;;;5.50;5.50;;;;;21.39;46.18;102143.22;5008007;28;51745;-39
2021/10/09 05:30:07;;;;;;;;;6.25;6.25;;;;;21.37;46.54;102140.66;5010356;28;50952;-39
2021/10/09 05:32:33;;;;;;;;;8.50;7.75;;;;;21.37;46.43;102146.19;5018629;28;51042;-39
2021/10/09 05:34:58;;;;;;;;;6.00;3.25;;;;;21.37;46.12;102139.81;5017973;28;51077;-39
2021/10/09 05:37:24;;;;;;;;;9.25;5.00;;;;;21.36;46.20;102144.44;5003251;28;51035;-39
2021/10/09 05:39:49;;;;;;;;;9.25;6.25;;;;;21.36;46.50;102141.69;5000348;28;51152;-39
2021/10/09 05:42:14;;;;;;;;;7.75;6.50;;;;;21.36;46.65;102143.59;5001245;28;51228;-39
2021/10/09 05:44:40;;;;;;;;;7.00;6.00;;;;;21.35;46.27;102151.00;5017296;28;51068;-39
2021/10/09 05:47:05;;;;;;;;;6.25;5.75;;;;;21.35;46.26;102148.25;4966699;28;53701;-39
2021/10/09 05:49:31;;;;;;;;;5.00;5.00;;;;;21.35;46.54;102151.00;5014205;28;51100;-39
2021/10/09 05:52:38;;;;;;;;;5.50;5.50;;;;;21.35;46.03;102150.16;5005377;28;51145;-40
2021/10/09 05:55:08;;;;;;;;;7.25;6.00;;;;;21.33;46.15;102151.22;4996932;28;51050;-39
2021/10/09 05:57:38;;;;;;;;;7.75;6.00;;;;;21.33;46.41;102156.72;4999383;28;51876;-39
2021/10/09 06:59:55;;;;;;;;;8.25;6.50;;;;;21.28;46.27;102228.13;5006670;28;52363;-40
2021/10/09 07:02:20;;;;;;;;;9.00;9.00;;;;;21.27;46.40;102218.16;5002917;28;50990;-40
2021/10/09 07:04:46;;;;;;;;;10.00;8.25;;;;;21.28;46.41;102225.38;5005817;28;51122;-40
2021/10/09 07:07:17;;;;;;;;;12.25;9.75;;;;;21.29;46.09;102227.06;5000811;28;51030;-40
2021/10/09 07:09:43;;;;;;;;;6.00;6.00;;;;;21.29;46.12;102237.25;5016285;28;51535;-40
2021/10/09 07:12:08;;;;;;;;;10.75;8.00;;;;;21.30;46.33;102236.19;5013802;28;53066;-40
2021/10/09 07:14:33;;;;;;;;;12.50;7.25;;;;;21.31;46.67;102237.91;5010217;28;51072;-40
2021/10/09 07:16:59;;;;;;;;;11.25;8.75;;;;;21.32;46.70;102245.13;5013172;28;51087;-39
2021/10/09 07:19:24;;;;;;;;;10.00;8.50;;;;;21.31;46.36;102241.50;5005769;28;51138;-39
2021/10/09 07:21:49;;;;;;;;;10.00;9.00;;;;;21.32;46.34;102247.88;5012698;28;51037;-40
2021/10/09 07:24:15;;;;;;;;;10.50;10.50;;;;;21.31;46.87;102241.50;5008059;28;51228;-39
2021/10/09 07:26:41;;;;;;;;;10.00;8.25;;;;;21.32;46.58;102248.72;5008039;28;51344;-40
2021/10/09 07:29:06;;;;;;;;;9.00;8.25;;;;;21.35;46.53;102252.13;5004779;28;51366;-40
2021/10/09 07:31:31;;;;;;;;;12.00;10.00;;;;;21.35;47.00;102249.38;5004785;28;51790;-39
2021/10/09 07:33:57;;;;;;;;;8.75;7.75;;;;;21.37;47.07;102258.34;5003789;28;52393;-39
2021/10/09 07:36:22;;;;;;;;;10.00;7.00;;;;;21.39;47.53;102261.75;5007513;28;51109;-38
2021/10/09 07:38:48;;;;;;;;;13.00;9.00;;;;;21.39;47.58;102262.59;5015769;28;51037;-38
2021/10/09 07:41:13;;;;;;;;;9.75;8.00;;;;;21.41;47.52;102262.41;5011458;28;51094;-39
2021/10/09 07:43:38;;;;;;;;;9.25;8.00;;;;;21.41;47.81;102263.25;5000313;28;51064;-38
2021/10/09 07:46:04;;;;;;;;;8.00;7.75;;;;;21.43;47.78;102260.28;4987409;28;51078;-39
2021/10/09 07:48:29;;;;;;;;;10.75;10.50;;;;;21.44;48.02;102267.50;5006397;28;51299;-39
2021/10/09 07:50:57;;;;;;;;;9.75;9.75;;;;;21.43;47.46;102261.16;5012613;28;52682;-39
2021/10/09 07:53:23;;;;;;;;;10.00;8.25;;;;;21.46;47.58;102273.69;5005320;28;51159;-39
2021/10/09 07:55:49;;;;;;;;;12.75;9.50;;;;;21.47;47.44;102267.16;5000853;28;51101;-39
2021/10/09 07:58:14;;;;;;;;;11.00;9.00;;;;;21.48;47.65;102263.34;5005641;28;51238;-39
2021/10/09 08:00:40;;;;;;;;;10.75;9.75;;;;;21.49;47.50;102270.56;4982643;28;51069;-38
2021/10/09 08:03:05;;;;;;;;;11.50;11.50;;;;;21.51;47.51;102279.47;5008009;28;51317;-39
2021/10/09 08:05:33;;;;;;;;;13.50;11.25;;;;;21.51;47.43;102279.47;5012008;28;51396;-39
2021/10/09 08:07:59;;;;;;;;;16.00;13.75;;;;;21.53;47.80;102285.66;5001079;28;51435;-38
2021/10/09 08:10:24;;;;;;;;;13.75;12.00;;;;;21.53;47.84;102289.25;4998730;28;51942;-39
2021/10/09 08:12:49;;;;;;;;;15.00;10.75;;;;;21.55;47.72;102281.63;5002261;28;51343;-40
2021/10/09 08:15:15;;;;;;;;;8.75;8.75;;;;;21.56;47.47;102274.22;5003564;28;51162;-39
2021/10/09 08:17:40;;;;;;;;;15.50;13.00;;;;;21.57;47.13;102271.28;5010860;28;51260;-39
2021/10/09 08:20:07;;;;;;;;;14.75;13.25;;;;;21.59;47.95;102284.88;5013698;28;51053;-41
2021/10/09 08:22:37;;;;;;;;;15.25;12.50;;;;;21.60;47.48;102279.16;4998850;28;51565;-40
2021/10/09 08:40:57;;;;;;;;;16.00;13.00;;;;;21.79;47.62;102268.56;4998449;28;51546;-40
2021/10/09 08:43:23;;;;;;;;;11.25;11.00;;;;;21.81;47.68;102270.06;5004649;28;50917;-39
2021/10/09 08:45:48;;;;;;;;;9.75;9.00;;;;;21.83;47.72;102267.94;5007832;28;51104;-40
2021/10/09 08:48:16;;;;;;;;;17.25;13.50;;;;;21.85;47.25;102267.75;4997053;28;51149;-40
2021/10/09 08:50:43;;;;;;;;;15.25;14.25;;;;;21.86;47.47;102263.94;5010763;28;52749;-40
2021/10/09 08:53:11;;;;;;;;;12.75;12.00;;;;;21.88;47.47;102272.84;5010765;28;51064;-39
2021/10/09 08:55:38;;;;;;;;;10.25;9.50;;;;;21.90;47.60;102266.13;5007502;28;50923;-39
2021/10/09 08:58:13;;;;;;;;;12.25;11.25;;;;;21.93;47.45;102269.53;4999060;28;51369;-44
2021/10/09 09:00:50;;;;;;;;;13.00;12.00;;;;;21.96;47.51;102263.59;5014571;28;52607;-39
2021/10/09 09:03:25;;;;;;;;;12.50;11.50;;;;;21.99;47.63;102265.94;5004516;28;51001;-39
2021/10/09 09:40:58;;;;;;;;;142.50;122.50;;;;;22.64;47.84;102260.16;5005940;28;51152;-39
2021/10/09 09:43:38;;;;;;;;;136.50;121.50;;;;;22.68;47.63;102261.44;5017756;28;51688;-39
2021/10/09 09:46:26;;;;;;;;;127.50;112.50;;;;;22.72;47.71;102250.84;5017170;28;51446;-39
2021/10/09 09:48:52;;;;;;;;;127.00;111.50;;;;;22.75;47.44;102245.75;5015861;28;51148;-39
2021/10/09 09:51:20;;;;;;;;;115.00;103.50;;;;;22.80;47.49;102247.03;5011083;28;51097;-39
2021/10/09 09:53:47;;;;;;;;;109.25;97.25;;;;;22.83;46.80;102241.13;5016957;28;51942;-39
2021/10/09 09:56:14;;;;;;;;;106.50;91.00;;;;;22.86;46.70;102247.13;5017594;28;51368;-39
2021/10/09 09:58:44;;;;;;;;;95.75;80.50;;;;;22.88;47.12;102235.88;5016938;28;51158;-39
2021/10/09 10:01:11;;;;;;;;;88.00;78.75;;;;;22.91;47.13;102239.06;5008577;28;50878;-39
2021/10/09 10:03:42;;;;;;;;;88.25;79.50;;;;;22.93;47.11;102236.13;5016215;28;51730;-39
2021/10/09 10:06:08;;;;;;;;;88.25;77.75;;;;;22.96;46.54;102230.16;5010174;28;51660;-39
2021/10/09 10:08:33;;;;;;;;;86.50;77.00;;;;;23.00;46.20;102232.31;5000575;28;51055;-39
2021/10/09 10:11:01;;;;;;;;;78.00;66.50;;;;;23.01;46.75;102236.75;5007030;28;51203;-43
2021/10/09 10:13:30;;;;;;;;;72.00;55.50;;;;;23.04;46.59;102230.84;5007422;28;51876;-40
2021/10/09 10:15:57;;;;;;;;;71.75;57.25;;;;;23.07;46.64;102234.25;5006821;28;52025;-39
2021/10/09 10:18:44;;;;;;;;;71.25;54.25;;;;;23.10;47.06;102226.38;4985646;28;51214;-41
2021/10/09 10:21:29;;;;;;;;;69.50;51.75;;;;;23.13;47.26;102225.97;5002487;28;51471;-39
2021/10/09 10:23:55;;;;;;;;;71.25;54.00;;;;;23.16;46.39;102230.25;5005271;28;52724;-39
2021/10/09 10:26:20;;;;;;;;;64.75;49.00;;;;;23.18;46.91;102222.59;5004293;28;52950;-40
2021/10/09 10:28:54;;;;;;;;;63.75;49.50;;;;;23.20;46.39;102226.00;5001546;28;51320;-39
2021/10/09 10:31:21;;;;;;;;;61.25;47.50;;;;;23.23;46.21;102223.66;5006943;28;51088;-39
2021/10/09 10:33:57;;;;;;;;;59.00;47.50;;;;;23.26;46.78;102230.72;5003090;28;51873;-39
2021/10/09 10:36:40;;;;;;;;;55.00;44.50;;;;;23.28;46.50;102232.19;5001013;28;51044;-42
2021/10/09 10:39:08;;;;;;;;;56.50;46.50;;;;;23.30;46.91;102232.00;5003307;28;51160;-40
2021/10/09 10:41:54;;;;;;;;;49.00;40.50;;;;;23.33;46.32;102229.66;5004461;28;51618;-39
2021/10/09 10:48:16;;;;;;;;;51.25;41.50;;;;;23.38;46.33;102233.72;5003146;28;51587;-39
2021/10/09 10:53:33;;;;;;;;;45.00;36.50;;;;;23.41;46.46;102234.16;5007047;28;51069;-39
2021/10/09 10:56:10;;;;;;;;;43.25;35.75;;;;;23.43;46.75;102226.47;4999253;28;52667;-39
2021/10/09 10:58:37;;;;;;;;;48.00;36.50;;;;;23.46;46.53;102222.47;5006515;28;51118;-41
2021/10/09 11:01:26;;;;;;;;;50.25;37.75;;;;;23.47;46.55;102221.41;4993325;28;51090;-42
2021/10/09 11:03:54;;;;;;;;;41.75;34.00;;;;;23.48;46.28;102214.81;5004977;28;51605;-40
2021/10/09 11:06:21;;;;;;;;;38.00;32.50;;;;;23.48;46.62;102212.91;5003789;28;51169;-44
2021/10/09 11:08:48;;;;;;;;;35.25;32.75;;;;;23.50;46.62;102204.38;5001379;28;51218;-41
2021/10/09 11:11:14;;;;;;;;;39.75;33.00;;;;;23.50;46.71;102205.25;5006779;28;51174;-39
2021/10/09 11:13:41;;;;;;;;;37.00;32.50;;;;;23.51;46.74;102208.84;5002522;28;51306;-39
2021/10/09 11:16:07;;;;;;;;;37.50;31.75;;;;;23.52;46.76;102205.03;4985736;28;52987;-42
2021/10/09 11:18:52;;;;;;;;;38.50;31.00;;;;;23.53;47.19;102215.03;5001732;28;51179;-39
2021/10/09 11:21:20;;;;;;;;;35.25;30.75;;;;;23.54;47.31;102203.75;5002417;28;51065;-39
2021/10/09 11:23:49;;;;;;;;;34.00;29.75;;;;;23.55;47.57;102208.25;5007757;28;51345;-39
2021/10/09 11:26:14;;;;;;;;;33.75;30.25;;;;;23.57;47.04;102208.88;4979260;28;51817;-39
2021/10/09 11:28:41;;;;;;;;;34.25;31.00;;;;;23.58;47.48;102201.44;5006968;28;52231;-39
2021/10/09 11:31:07;;;;;;;;;33.50;30.00;;;;;23.59;47.55;102206.78;5000696;28;52088;-39
2021/10/09 11:33:33;;;;;;;;;30.75;28.75;;;;;23.60;47.36;102205.72;5006928;28;50994;-39
2021/10/09 11:36:02;;;;;;;;;25.50;23.50;;;;;23.60;47.34;102202.94;5005379;28;51824;-39
2021/10/09 11:38:31;;;;;;;;;30.75;27.75;;;;;23.60;46.98;102208.47;4996734;28;50903;-39
2021/10/09 11:41:02;;;;;;;;;27.25;25.00;;;;;23.61;47.30;102206.56;5008056;28;51145;-40
2021/10/09 11:46:30;;;;;;;;;29.50;26.50;;;;;23.60;46.94;102202.09;5002012;28;51185;-41
2021/10/09 11:54:35;;;;;;;;;28.25;26.75;;;;;23.58;47.12;102196.78;4999789;28;51215;-40
2021/10/09 11:57:03;;;;;;;;;23.50;17.75;;;;;23.56;46.98;102201.66;5004800;28;51276;-42
2021/10/09 11:59:40;;;;;;;;;15.75;15.75;;;;;23.54;46.59;102194.59;5001134;28;51451;-41
2021/10/09 12:02:06;;;;;;;;;26.75;20.75;;;;;23.52;46.46;102193.97;5000751;28;51147;-41
2021/10/09 12:04:32;;;;;;;;;19.75;19.75;;;;;23.51;46.42;102193.09;4998571;28;52126;-41
2021/10/09 12:07:09;;;;;;;;;25.00;20.25;;;;;23.52;46.51;102197.56;4982705;28;52476;-40
2021/10/09 12:09:58;;;;;;;;;24.75;20.75;;;;;23.53;46.83;102195.66;4986844;28;50994;-41
2021/10/09 12:12:27;;;;;;;;;22.25;17.25;;;;;23.52;46.69;102186.50;5003884;28;51239;-42
2021/10/09 12:14:53;;;;;;;;;22.75;20.75;;;;;23.52;46.55;102186.50;4999553;28;51852;-40
2021/10/09 12:17:21;;;;;;;;;21.25;17.50;;;;;23.51;46.67;102184.81;5001256;28;51897;-45
2021/10/09 12:19:57;;;;;;;;;18.50;16.25;;;;;23.52;46.47;102178.22;5001014;28;52302;-42
2021/10/09 12:22:22;;;;;;;;;21.50;18.75;;;;;23.51;46.78;102184.81;5006894;28;51131;-43
2021/10/09 12:24:51;;;;;;;;;17.00;15.50;;;;;23.52;46.34;102180.13;5008415;28;51254;-43
2021/10/09 12:27:17;;;;;;;;;20.50;18.50;;;;;23.50;46.15;102188.66;4996578;28;51010;-43
2021/10/09 12:30:09;;;;;;;;;18.50;16.00;;;;;23.50;46.50;102179.50;4999337;28;51384;-43
2021/10/09 12:32:39;;;;;;;;;20.25;17.50;;;;;23.48;46.62;102176.94;4998156;28;51145;-42
2021/10/09 12:35:25;;;;;;;;;22.25;15.75;;;;;23.47;46.41;102177.16;5002147;28;51226;-42
2021/10/09 12:37:58;;;;;;;;;19.25;15.00;;;;;23.47;46.52;102166.09;5004598;28;51119;-42
2021/10/09 12:40:26;;;;;;;;;19.25;14.25;;;;;23.46;46.56;102169.94;5006285;28;51217;-43
2021/10/09 12:42:55;;;;;;;;;19.50;17.00;;;;;23.45;46.07;102163.56;5012061;28;51072;-42
2021/10/09 12:45:21;;;;;;;;;19.00;16.50;;;;;23.45;46.35;102171.00;5004676;28;50962;-42
2021/10/09 12:47:47;;;;;;;;;15.25;15.25;;;;;23.43;46.17;102165.66;5013267;28;51041;-43
2021/10/09 12:50:13;;;;;;;;;17.00;15.50;;;;;23.43;46.29;102165.66;5004867;28;50985;-43
2021/10/09 12:52:38;;;;;;;;;17.50;13.00;;;;;23.40;46.16;102157.78;5010119;28;52743;-42
2021/10/09 12:55:06;;;;;;;;;14.50;11.75;;;;;23.39;46.60;102155.22;5007310;28;51020;-43
2021/10/09 12:57:32;;;;;;;;;16.75;14.75;;;;;23.38;46.00;102151.63;5008293;28;51954;-42
2021/10/09 12:59:58;;;;;;;;;13.25;12.50;;;;;23.37;45.94;102158.22;5005279;28;51179;-42
2021/10/09 13:02:23;;;;;;;;;13.50;11.75;;;;;23.36;46.49;102152.91;5003048;28;51059;-40
2021/10/09 13:04:49;;;;;;;;;16.00;15.75;;;;;23.35;45.99;102154.81;5006649;28;51050;-39
2021/10/09 13:07:14;;;;;;;;;15.25;13.75;;;;;23.35;46.23;102159.50;5003443;28;51276;-39
2021/10/09 13:09:39;;;;;;;;;13.75;13.25;;;;;23.34;46.02;102150.31;5009639;28;51003;-42
2021/10/09 13:12:07;;;;;;;;;13.75;13.50;;;;;23.34;46.12;102153.09;5008240;28;51191;-40
2021/10/09 13:14:33;;;;;;;;;14.25;11.75;;;;;23.34;46.27;102150.31;5004662;28;51656;-38
2021/10/09 13:16:59;;;;;;;;;15.75;12.50;;;;;23.35;46.03;102153.97;5010925;28;51860;-41
2021/10/09 13:19:24;;;;;;;;;11.25;10.75;;;;;23.33;46.18;102143.94;5000040;28;52373;-41
2021/10/09 13:21:50;;;;;;;;;16.50;14.25;;;;;23.33;45.85;102143.94;5003614;28;51023;-41
2021/10/09 13:24:15;;;;;;;;;16.00;15.00;;;;;23.32;46.33;102145.00;4987591;28;52188;-39
2021/10/09 13:26:41;;;;;;;;;15.50;15.50;;;;;23.32;46.47;102145.00;5006116;28;51655;-39
2021/10/09 13:29:06;;;;;;;;;15.25;11.25;;;;;23.32;46.09;102141.38;5004181;28;51519;-39
2021/10/09 13:31:33;;;;;;;;;14.50;12.75;;;;;23.32;45.77;102141.38;5004807;28;51602;-41
2021/10/09 13:33:58;;;;;;;;;17.00;13.50;;;;;23.32;46.15;102144.16;5003347;28;51095;-39
2021/10/09 13:36:25;;;;;;;;;12.00;11.00;;;;;23.32;46.19;102141.38;4998416;28;51660;-40
2021/10/09 13:38:51;;;;;;;;;15.00;14.00;;;;;23.32;46.16;102144.16;5001018;28;51360;-41
2021/10/09 13:41:16;;;;;;;;;12.75;12.50;;;;;23.32;45.88;102147.75;5006059;28;51156;-39